sensor_id;sensor_type;location;lat;lon;timestamp;temperature;humidity
13992;DHT22;7070;53.586;9.692;2023-07-02T00:01:45;14.90;79.00
13992;DHT22;7070;53.586;9.692;2023-07-02T00:04:14;14.90;79.20
13992;DHT22;7070;53.586;9.692;2023-07-02T00:06:43;14.90;79.50
13992;DHT22;7070;53.586;9.692;2023-07-02T00:09:10;14.90;79.80
13992;DHT22;7070;53.586;9.692;2023-07-02T00:11:37;15.00;80.00
13992;DHT22;7070;53.586;9.692;2023-07-02T00:14:04;15.00;80.30
13992;DHT22;7070;53.586;9.692;2023-07-02T00:16:31;15.00;80.40
13992;DHT22;7070;53.586;9.692;2023-07-02T00:18:58;15.10;80.60
13992;DHT22;7070;53.586;9.692;2023-07-02T00:21:25;15.20;80.80
13992;DHT22;7070;53.586;9.692;2023-07-02T00:23:55;15.30;80.90
13992;DHT22;7070;53.586;9.692;2023-07-02T00:26:23;15.30;80.90
13992;DHT22;7070;53.586;9.692;2023-07-02T00:28:51;15.40;80.80
13992;DHT22;7070;53.586;9.692;2023-07-02T00:31:18;15.50;80.70
13992;DHT22;7070;53.586;9.692;2023-07-02T00:33:45;15.50;80.80
13992;DHT22;7070;53.586;9.692;2023-07-02T00:36:12;15.60;80.80
13992;DHT22;7070;53.586;9.692;2023-07-02T00:38:40;15.70;80.80
13992;DHT22;7070;53.586;9.692;2023-07-02T00:41:09;15.70;80.60
13992;DHT22;7070;53.586;9.692;2023-07-02T00:43:36;15.80;80.70
13992;DHT22;7070;53.586;9.692;2023-07-02T00:46:04;15.80;80.50
13992;DHT22;7070;53.586;9.692;2023-07-02T00:48:31;15.90;80.60
13992;DHT22;7070;53.586;9.692;2023-07-02T00:50:58;16.00;80.50
13992;DHT22;7070;53.586;9.692;2023-07-02T00:53:25;16.10;80.40
13992;DHT22;7070;53.586;9.692;2023-07-02T00:55:52;16.10;80.20
13992;DHT22;7070;53.586;9.692;2023-07-02T00:58:20;16.10;80.20
13992;DHT22;7070;53.586;9.692;2023-07-02T01:00:47;16.20;79.80
13992;DHT22;7070;53.586;9.692;2023-07-02T01:03:14;16.20;79.60
13992;DHT22;7070;53.586;9.692;2023-07-02T01:05:41;16.20;79.50
13992;DHT22;7070;53.586;9.692;2023-07-02T01:08:08;16.10;79.30
13992;DHT22;7070;53.586;9.692;2023-07-02T01:10:36;16.20;79.40
13992;DHT22;7070;53.586;9.692;2023-07-02T01:13:06;16.10;79.40
13992;DHT22;7070;53.586;9.692;2023-07-02T01:15:36;16.00;80.10
13992;DHT22;7070;53.586;9.692;2023-07-02T01:18:04;16.10;79.50
13992;DHT22;7070;53.586;9.692;2023-07-02T01:20:33;16.10;79.40
13992;DHT22;7070;53.586;9.692;2023-07-02T01:23:01;16.10;79.50
13992;DHT22;7070;53.586;9.692;2023-07-02T01:25:29;16.10;79.50
13992;DHT22;7070;53.586;9.692;2023-07-02T01:27:56;16.10;79.60
13992;DHT22;7070;53.586;9.692;2023-07-02T01:30:24;16.10;79.50
13992;DHT22;7070;53.586;9.692;2023-07-02T01:32:51;16.20;79.60
13992;DHT22;7070;53.586;9.692;2023-07-02T01:35:18;16.20;79.50
13992;DHT22;7070;53.586;9.692;2023-07-02T01:37:47;16.20;79.50
13992;DHT22;7070;53.586;9.692;2023-07-02T01:40:14;16.20;79.30
13992;DHT22;7070;53.586;9.692;2023-07-02T01:42:40;16.10;79.20
13992;DHT22;7070;53.586;9.692;2023-07-02T01:45:08;16.20;79.40
13992;DHT22;7070;53.586;9.692;2023-07-02T01:47:35;16.20;79.40
13992;DHT22;7070;53.586;9.692;2023-07-02T01:50:04;16.20;79.60
13992;DHT22;7070;53.586;9.692;2023-07-02T01:52:31;16.20;79.40
13992;DHT22;7070;53.586;9.692;2023-07-02T01:55:00;16.20;79.20
13992;DHT22;7070;53.586;9.692;2023-07-02T01:57:27;16.20;79.00
13992;DHT22;7070;53.586;9.692;2023-07-02T01:59:56;16.20;78.80
13992;DHT22;7070;53.586;9.692;2023-07-02T02:02:23;16.10;78.70
13992;DHT22;7070;53.586;9.692;2023-07-02T02:04:50;16.10;78.70
13992;DHT22;7070;53.586;9.692;2023-07-02T02:07:17;15.90;78.50
13992;DHT22;7070;53.586;9.692;2023-07-02T02:09:43;15.90;78.50
13992;DHT22;7070;53.586;9.692;2023-07-02T02:12:12;15.90;78.70
13992;DHT22;7070;53.586;9.692;2023-07-02T02:14:39;15.80;78.70
13992;DHT22;7070;53.586;9.692;2023-07-02T02:17:07;15.80;78.80
13992;DHT22;7070;53.586;9.692;2023-07-02T02:19:34;15.70;78.90
13992;DHT22;7070;53.586;9.692;2023-07-02T02:22:01;15.70;78.90
13992;DHT22;7070;53.586;9.692;2023-07-02T02:24:28;15.70;79.00
13992;DHT22;7070;53.586;9.692;2023-07-02T02:26:55;15.60;79.00
13992;DHT22;7070;53.586;9.692;2023-07-02T02:29:23;15.50;79.10
13992;DHT22;7070;53.586;9.692;2023-07-02T02:31:50;15.60;79.30
13992;DHT22;7070;53.586;9.692;2023-07-02T02:34:17;15.50;79.20
13992;DHT22;7070;53.586;9.692;2023-07-02T02:36:44;15.50;79.20
13992;DHT22;7070;53.586;9.692;2023-07-02T02:39:12;15.40;79.10
13992;DHT22;7070;53.586;9.692;2023-07-02T02:41:39;15.40;79.10
13992;DHT22;7070;53.586;9.692;2023-07-02T02:44:06;15.40;79.10
13992;DHT22;7070;53.586;9.692;2023-07-02T02:46:35;15.40;79.10
13992;DHT22;7070;53.586;9.692;2023-07-02T02:49:01;15.30;79.00
13992;DHT22;7070;53.586;9.692;2023-07-02T02:51:28;15.20;79.00
13992;DHT22;7070;53.586;9.692;2023-07-02T02:53:55;15.10;79.00
13992;DHT22;7070;53.586;9.692;2023-07-02T02:56:22;15.10;79.00
13992;DHT22;7070;53.586;9.692;2023-07-02T02:58:49;15.10;80.00
13992;DHT22;7070;53.586;9.692;2023-07-02T03:01:16;15.10;79.40
13992;DHT22;7070;53.586;9.692;2023-07-02T03:03:44;15.00;79.30
13992;DHT22;7070;53.586;9.692;2023-07-02T03:06:12;14.90;79.20
13992;DHT22;7070;53.586;9.692;2023-07-02T03:08:40;14.90;79.30
13992;DHT22;7070;53.586;9.692;2023-07-02T03:11:07;14.90;79.40
13992;DHT22;7070;53.586;9.692;2023-07-02T03:13:34;14.90;79.50
13992;DHT22;7070;53.586;9.692;2023-07-02T03:16:01;14.80;80.20
13992;DHT22;7070;53.586;9.692;2023-07-02T03:18:28;14.80;79.50
13992;DHT22;7070;53.586;9.692;2023-07-02T03:20:56;14.80;79.60
13992;DHT22;7070;53.586;9.692;2023-07-02T03:23:23;12.50;77.30
13992;DHT22;7070;53.586;9.692;2023-07-02T03:25:50;14.70;79.60
13992;DHT22;7070;53.586;9.692;2023-07-02T03:28:17;14.70;79.60
13992;DHT22;7070;53.586;9.692;2023-07-02T03:30:43;14.70;79.70
13992;DHT22;7070;53.586;9.692;2023-07-02T03:33:10;14.60;79.70
13992;DHT22;7070;53.586;9.692;2023-07-02T03:35:37;14.60;79.80
13992;DHT22;7070;53.586;9.692;2023-07-02T03:38:05;14.60;80.00
13992;DHT22;7070;53.586;9.692;2023-07-02T03:40:32;14.60;80.00
13992;DHT22;7070;53.586;9.692;2023-07-02T03:42:59;14.60;80.10
13992;DHT22;7070;53.586;9.692;2023-07-02T03:45:26;14.60;80.20
13992;DHT22;7070;53.586;9.692;2023-07-02T03:47:53;14.60;80.10
13992;DHT22;7070;53.586;9.692;2023-07-02T03:50:20;14.60;80.20
13992;DHT22;7070;53.586;9.692;2023-07-02T03:52:46;14.60;80.20
13992;DHT22;7070;53.586;9.692;2023-07-02T03:55:15;14.60;80.20
13992;DHT22;7070;53.586;9.692;2023-07-02T03:57:42;14.60;80.10
13992;DHT22;7070;53.586;9.692;2023-07-02T04:00:09;14.60;80.20
13992;DHT22;7070;53.586;9.692;2023-07-02T04:02:37;14.70;80.20
13992;DHT22;7070;53.586;9.692;2023-07-02T04:05:04;14.70;80.20
13992;DHT22;7070;53.586;9.692;2023-07-02T04:07:32;14.70;80.20
13992;DHT22;7070;53.586;9.692;2023-07-02T04:09:59;14.70;80.20
13992;DHT22;7070;53.586;9.692;2023-07-02T04:12:27;14.70;80.10
13992;DHT22;7070;53.586;9.692;2023-07-02T04:14:54;14.80;80.90
13992;DHT22;7070;53.586;9.692;2023-07-02T04:17:21;14.80;80.20
13992;DHT22;7070;53.586;9.692;2023-07-02T04:19:48;14.90;80.30
13992;DHT22;7070;53.586;9.692;2023-07-02T04:22:15;14.90;80.30
13992;DHT22;7070;53.586;9.692;2023-07-02T04:24:43;14.90;80.20
13992;DHT22;7070;53.586;9.692;2023-07-02T04:27:10;15.00;80.20
13992;DHT22;7070;53.586;9.692;2023-07-02T04:29:40;15.00;80.80
13992;DHT22;7070;53.586;9.692;2023-07-02T04:32:07;15.10;80.10
13992;DHT22;7070;53.586;9.692;2023-07-02T04:34:34;15.10;80.10
13992;DHT22;7070;53.586;9.692;2023-07-02T04:37:02;15.10;80.10
13992;DHT22;7070;53.586;9.692;2023-07-02T04:39:28;15.30;80.50
13992;DHT22;7070;53.586;9.692;2023-07-02T04:41:55;15.40;80.50
13992;DHT22;7070;53.586;9.692;2023-07-02T04:44:22;15.60;80.70
13992;DHT22;7070;53.586;9.692;2023-07-02T04:46:56;15.80;80.80
13992;DHT22;7070;53.586;9.692;2023-07-02T04:49:23;16.00;80.70
13992;DHT22;7070;53.586;9.692;2023-07-02T04:51:50;16.20;80.70
13992;DHT22;7070;53.586;9.692;2023-07-02T04:54:19;16.50;80.60
13992;DHT22;7070;53.586;9.692;2023-07-02T04:56:46;16.70;80.50
13992;DHT22;7070;53.586;9.692;2023-07-02T04:59:13;16.90;80.10
13992;DHT22;7070;53.586;9.692;2023-07-02T05:01:40;17.20;79.80
13992;DHT22;7070;53.586;9.692;2023-07-02T05:04:09;17.30;79.50
13992;DHT22;7070;53.586;9.692;2023-07-02T05:06:36;17.60;79.20
13992;DHT22;7070;53.586;9.692;2023-07-02T05:09:03;17.70;78.80
13992;DHT22;7070;53.586;9.692;2023-07-02T05:11:30;17.90;79.40
13992;DHT22;7070;53.586;9.692;2023-07-02T05:13:57;18.10;78.20
13992;DHT22;7070;53.586;9.692;2023-07-02T05:16:24;18.20;77.90
13992;DHT22;7070;53.586;9.692;2023-07-02T05:18:51;18.40;77.80
13992;DHT22;7070;53.586;9.692;2023-07-02T05:21:19;18.60;77.50
13992;DHT22;7070;53.586;9.692;2023-07-02T05:23:47;18.80;78.00
13992;DHT22;7070;53.586;9.692;2023-07-02T05:26:14;18.90;77.10
13992;DHT22;7070;53.586;9.692;2023-07-02T05:28:41;19.00;76.80
13992;DHT22;7070;53.586;9.692;2023-07-02T05:31:07;19.10;76.40
13992;DHT22;7070;53.586;9.692;2023-07-02T05:33:34;19.20;76.20
13992;DHT22;7070;53.586;9.692;2023-07-02T05:36:01;19.30;76.00
13992;DHT22;7070;53.586;9.692;2023-07-02T05:38:29;19.40;75.80
13992;DHT22;7070;53.586;9.692;2023-07-02T05:40:56;19.60;75.80
13992;DHT22;7070;53.586;9.692;2023-07-02T05:43:23;19.70;75.40
13992;DHT22;7070;53.586;9.692;2023-07-02T05:45:51;19.80;75.20
13992;DHT22;7070;53.586;9.692;2023-07-02T05:48:18;19.90;75.00
13992;DHT22;7070;53.586;9.692;2023-07-02T05:50:45;20.00;74.70
13992;DHT22;7070;53.586;9.692;2023-07-02T05:53:12;20.20;74.70
13992;DHT22;7070;53.586;9.692;2023-07-02T05:55:42;20.20;74.60
13992;DHT22;7070;53.586;9.692;2023-07-02T05:58:09;20.30;74.50
13992;DHT22;7070;53.586;9.692;2023-07-02T06:00:36;20.50;74.50
13992;DHT22;7070;53.586;9.692;2023-07-02T06:03:03;20.60;74.40
13992;DHT22;7070;53.586;9.692;2023-07-02T06:05:29;20.70;74.10
13992;DHT22;7070;53.586;9.692;2023-07-02T06:07:56;20.80;73.80
13992;DHT22;7070;53.586;9.692;2023-07-02T06:10:23;20.90;73.60
13992;DHT22;7070;53.586;9.692;2023-07-02T06:12:51;21.00;73.30
13992;DHT22;7070;53.586;9.692;2023-07-02T06:15:18;21.00;73.10
13992;DHT22;7070;53.586;9.692;2023-07-02T06:17:45;21.00;73.00
13992;DHT22;7070;53.586;9.692;2023-07-02T06:20:12;21.10;73.00
13992;DHT22;7070;53.586;9.692;2023-07-02T06:22:39;21.10;72.80
13992;DHT22;7070;53.586;9.692;2023-07-02T06:25:08;21.20;72.90
13992;DHT22;7070;53.586;9.692;2023-07-02T06:27:35;21.30;72.80
13992;DHT22;7070;53.586;9.692;2023-07-02T06:30:03;21.30;72.60
13992;DHT22;7070;53.586;9.692;2023-07-02T06:32:31;21.40;72.50
13992;DHT22;7070;53.586;9.692;2023-07-02T06:34:58;21.40;72.40
13992;DHT22;7070;53.586;9.692;2023-07-02T06:37:25;21.50;72.50
13992;DHT22;7070;53.586;9.692;2023-07-02T06:39:52;21.60;72.60
13992;DHT22;7070;53.586;9.692;2023-07-02T06:42:19;21.70;72.70
13992;DHT22;7070;53.586;9.692;2023-07-02T06:44:45;21.80;72.90
13992;DHT22;7070;53.586;9.692;2023-07-02T06:47:14;21.90;72.90
13992;DHT22;7070;53.586;9.692;2023-07-02T06:49:40;22.00;72.20
13992;DHT22;7070;53.586;9.692;2023-07-02T06:52:07;22.10;72.10
13992;DHT22;7070;53.586;9.692;2023-07-02T06:54:34;22.20;72.00
13992;DHT22;7070;53.586;9.692;2023-07-02T06:57:01;22.20;71.80
13992;DHT22;7070;53.586;9.692;2023-07-02T06:59:28;22.30;71.60
13992;DHT22;7070;53.586;9.692;2023-07-02T07:01:55;22.30;71.40
13992;DHT22;7070;53.586;9.692;2023-07-02T07:04:23;22.30;71.10
13992;DHT22;7070;53.586;9.692;2023-07-02T07:06:50;22.20;70.80
13992;DHT22;7070;53.586;9.692;2023-07-02T07:09:17;22.30;70.80
13992;DHT22;7070;53.586;9.692;2023-07-02T07:11:44;22.20;70.50
13992;DHT22;7070;53.586;9.692;2023-07-02T07:14:11;22.10;71.20
13992;DHT22;7070;53.586;9.692;2023-07-02T07:16:38;21.90;70.40
13992;DHT22;7070;53.586;9.692;2023-07-02T07:19:05;21.90;70.30
13992;DHT22;7070;53.586;9.692;2023-07-02T07:21:34;21.70;70.10
13992;DHT22;7070;53.586;9.692;2023-07-02T07:24:01;21.70;70.40
13992;DHT22;7070;53.586;9.692;2023-07-02T07:26:28;21.60;70.60
13992;DHT22;7070;53.586;9.692;2023-07-02T07:28:55;21.60;70.70
13992;DHT22;7070;53.586;9.692;2023-07-02T07:31:23;21.60;70.70
13992;DHT22;7070;53.586;9.692;2023-07-02T07:33:51;21.50;70.40
13992;DHT22;7070;53.586;9.692;2023-07-02T07:36:18;21.50;70.10
13992;DHT22;7070;53.586;9.692;2023-07-02T07:38:47;21.40;69.70
13992;DHT22;7070;53.586;9.692;2023-07-02T07:41:13;21.30;69.50
13992;DHT22;7070;53.586;9.692;2023-07-02T07:43:40;21.10;69.50
13992;DHT22;7070;53.586;9.692;2023-07-02T07:46:07;21.00;69.70
13992;DHT22;7070;53.586;9.692;2023-07-02T07:48:34;20.90;69.80
13992;DHT22;7070;53.586;9.692;2023-07-02T07:51:01;20.80;70.10
13992;DHT22;7070;53.586;9.692;2023-07-02T07:53:28;20.70;70.20
13992;DHT22;7070;53.586;9.692;2023-07-02T07:55:56;20.60;70.50
13992;DHT22;7070;53.586;9.692;2023-07-02T07:58:23;20.60;70.80
13992;DHT22;7070;53.586;9.692;2023-07-02T08:00:50;20.60;71.00
13992;DHT22;7070;53.586;9.692;2023-07-02T08:03:17;20.70;71.40
13992;DHT22;7070;53.586;9.692;2023-07-02T08:05:44;20.90;71.70
13992;DHT22;7070;53.586;9.692;2023-07-02T08:08:11;21.00;71.70
13992;DHT22;7070;53.586;9.692;2023-07-02T08:10:38;21.20;71.30
13992;DHT22;7070;53.586;9.692;2023-07-02T08:13:08;21.30;71.40
13992;DHT22;7070;53.586;9.692;2023-07-02T08:15:35;21.30;70.20
13992;DHT22;7070;53.586;9.692;2023-07-02T08:18:01;21.40;70.10
13992;DHT22;7070;53.586;9.692;2023-07-02T08:20:29;21.40;70.10
13992;DHT22;7070;53.586;9.692;2023-07-02T08:22:56;21.30;70.00
13992;DHT22;7070;53.586;9.692;2023-07-02T08:25:23;21.40;70.00
13992;DHT22;7070;53.586;9.692;2023-07-02T08:27:52;21.40;69.80
13992;DHT22;7070;53.586;9.692;2023-07-02T08:30:20;21.40;69.40
13992;DHT22;7070;53.586;9.692;2023-07-02T08:32:47;21.40;69.60
13992;DHT22;7070;53.586;9.692;2023-07-02T08:35:14;21.40;69.90
13992;DHT22;7070;53.586;9.692;2023-07-02T08:37:41;21.50;70.20
13992;DHT22;7070;53.586;9.692;2023-07-02T08:40:15;21.50;69.90
13992;DHT22;7070;53.586;9.692;2023-07-02T08:42:45;21.60;69.30
13992;DHT22;7070;53.586;9.692;2023-07-02T08:45:13;21.70;69.60
13992;DHT22;7070;53.586;9.692;2023-07-02T08:47:43;21.80;69.20
13992;DHT22;7070;53.586;9.692;2023-07-02T08:50:11;21.80;69.00
13992;DHT22;7070;53.586;9.692;2023-07-02T08:52:38;21.80;69.20
13992;DHT22;7070;53.586;9.692;2023-07-02T08:55:06;22.00;69.60
13992;DHT22;7070;53.586;9.692;2023-07-02T08:57:34;22.10;69.70
13992;DHT22;7070;53.586;9.692;2023-07-02T09:00:05;22.20;69.30
13992;DHT22;7070;53.586;9.692;2023-07-02T09:02:33;22.20;68.60
13992;DHT22;7070;53.586;9.692;2023-07-02T09:05:02;22.20;68.70
13992;DHT22;7070;53.586;9.692;2023-07-02T09:07:30;22.20;68.20
13992;DHT22;7070;53.586;9.692;2023-07-02T09:09:56;22.00;67.80
13992;DHT22;7070;53.586;9.692;2023-07-02T09:12:24;21.90;67.80
13992;DHT22;7070;53.586;9.692;2023-07-02T09:14:55;21.70;67.20
13992;DHT22;7070;53.586;9.692;2023-07-02T09:17:27;21.40;66.60
13992;DHT22;7070;53.586;9.692;2023-07-02T09:19:55;20.90;66.60
13992;DHT22;7070;53.586;9.692;2023-07-02T09:22:23;20.50;67.60
13992;DHT22;7070;53.586;9.692;2023-07-02T09:24:53;20.20;68.40
13992;DHT22;7070;53.586;9.692;2023-07-02T09:27:21;19.90;69.10
13992;DHT22;7070;53.586;9.692;2023-07-02T09:29:50;19.70;70.50
13992;DHT22;7070;53.586;9.692;2023-07-02T09:32:24;19.60;70.80
13992;DHT22;7070;53.586;9.692;2023-07-02T09:34:54;19.50;70.10
13992;DHT22;7070;53.586;9.692;2023-07-02T09:37:22;19.40;70.40
13992;DHT22;7070;53.586;9.692;2023-07-02T09:39:50;19.30;70.60
13992;DHT22;7070;53.586;9.692;2023-07-02T09:42:18;19.30;71.10
13992;DHT22;7070;53.586;9.692;2023-07-02T09:44:46;19.30;71.50
13992;DHT22;7070;53.586;9.692;2023-07-02T09:47:14;19.50;72.10
13992;DHT22;7070;53.586;9.692;2023-07-02T09:49:54;19.70;72.30
13992;DHT22;7070;53.586;9.692;2023-07-02T09:52:22;19.90;71.30
13992;DHT22;7070;53.586;9.692;2023-07-02T09:54:49;20.10;71.30
13992;DHT22;7070;53.586;9.692;2023-07-02T09:57:16;20.20;71.20
13992;DHT22;7070;53.586;9.692;2023-07-02T09:59:44;20.30;71.40
13992;DHT22;7070;53.586;9.692;2023-07-02T10:02:12;20.50;71.50
13992;DHT22;7070;53.586;9.692;2023-07-02T10:04:42;20.60;71.40
13992;DHT22;7070;53.586;9.692;2023-07-02T10:07:09;20.80;71.20
13992;DHT22;7070;53.586;9.692;2023-07-02T10:09:39;20.90;71.00
13992;DHT22;7070;53.586;9.692;2023-07-02T10:12:24;21.00;71.80
13992;DHT22;7070;53.586;9.692;2023-07-02T10:14:52;21.20;69.60
13992;DHT22;7070;53.586;9.692;2023-07-02T10:17:26;21.30;70.40
13992;DHT22;7070;53.586;9.692;2023-07-02T10:19:55;21.30;69.60
13992;DHT22;7070;53.586;9.692;2023-07-02T10:22:22;21.30;69.90
13992;DHT22;7070;53.586;9.692;2023-07-02T10:24:54;21.40;70.00
13992;DHT22;7070;53.586;9.692;2023-07-02T10:27:33;21.40;69.60
13992;DHT22;7070;53.586;9.692;2023-07-02T10:30:00;21.30;69.40
13992;DHT22;7070;53.586;9.692;2023-07-02T10:32:28;21.30;69.90
13992;DHT22;7070;53.586;9.692;2023-07-02T10:34:56;21.20;70.00
13992;DHT22;7070;53.586;9.692;2023-07-02T10:37:24;21.20;70.30
13992;DHT22;7070;53.586;9.692;2023-07-02T10:39:51;21.30;70.70
13992;DHT22;7070;53.586;9.692;2023-07-02T10:42:19;21.30;70.60
13992;DHT22;7070;53.586;9.692;2023-07-02T10:44:49;21.30;70.20
13992;DHT22;7070;53.586;9.692;2023-07-02T10:47:16;21.40;69.70
13992;DHT22;7070;53.586;9.692;2023-07-02T10:49:43;21.30;69.00
13992;DHT22;7070;53.586;9.692;2023-07-02T10:52:09;21.20;68.90
13992;DHT22;7070;53.586;9.692;2023-07-02T10:54:40;21.00;68.80
13992;DHT22;7070;53.586;9.692;2023-07-02T10:57:09;20.90;69.00
13992;DHT22;7070;53.586;9.692;2023-07-02T10:59:38;20.80;69.70
13992;DHT22;7070;53.586;9.692;2023-07-02T11:02:05;20.80;71.10
13992;DHT22;7070;53.586;9.692;2023-07-02T11:04:33;20.80;70.90
13992;DHT22;7070;53.586;9.692;2023-07-02T11:07:00;20.90;71.30
13992;DHT22;7070;53.586;9.692;2023-07-02T11:09:27;21.00;71.10
13992;DHT22;7070;53.586;9.692;2023-07-02T11:11:55;21.20;71.70
13992;DHT22;7070;53.586;9.692;2023-07-02T11:14:29;21.40;70.60
13992;DHT22;7070;53.586;9.692;2023-07-02T11:16:59;21.40;69.60
13992;DHT22;7070;53.586;9.692;2023-07-02T11:19:27;21.50;70.00
13992;DHT22;7070;53.586;9.692;2023-07-02T11:21:56;21.60;69.70
13992;DHT22;7070;53.586;9.692;2023-07-02T11:24:27;21.60;69.50
13992;DHT22;7070;53.586;9.692;2023-07-02T11:26:54;21.60;69.30
13992;DHT22;7070;53.586;9.692;2023-07-02T11:29:21;21.70;69.70
13992;DHT22;7070;53.586;9.692;2023-07-02T11:31:48;21.80;70.30
13992;DHT22;7070;53.586;9.692;2023-07-02T11:34:18;22.00;70.80
13992;DHT22;7070;53.586;9.692;2023-07-02T11:36:45;22.20;70.80
13992;DHT22;7070;53.586;9.692;2023-07-02T11:39:12;22.40;70.60
13992;DHT22;7070;53.586;9.692;2023-07-02T11:41:42;22.60;70.40
13992;DHT22;7070;53.586;9.692;2023-07-02T11:44:10;22.80;70.50
13992;DHT22;7070;53.586;9.692;2023-07-02T11:46:37;22.90;69.30
13992;DHT22;7070;53.586;9.692;2023-07-02T11:49:04;22.90;68.50
13992;DHT22;7070;53.586;9.692;2023-07-02T11:51:35;22.90;68.30
13992;DHT22;7070;53.586;9.692;2023-07-02T11:54:02;22.80;67.80
13992;DHT22;7070;53.586;9.692;2023-07-02T11:56:29;22.70;67.90
13992;DHT22;7070;53.586;9.692;2023-07-02T11:58:56;22.60;68.00
13992;DHT22;7070;53.586;9.692;2023-07-02T12:01:23;22.50;68.80
13992;DHT22;7070;53.586;9.692;2023-07-02T12:03:50;22.40;68.20
13992;DHT22;7070;53.586;9.692;2023-07-02T12:06:18;22.30;68.40
13992;DHT22;7070;53.586;9.692;2023-07-02T12:08:46;22.30;68.50
13992;DHT22;7070;53.586;9.692;2023-07-02T12:11:13;22.30;68.50
13992;DHT22;7070;53.586;9.692;2023-07-02T12:13:41;22.20;68.30
13992;DHT22;7070;53.586;9.692;2023-07-02T12:16:08;22.20;68.60
13992;DHT22;7070;53.586;9.692;2023-07-02T12:18:35;22.10;69.60
13992;DHT22;7070;53.586;9.692;2023-07-02T12:21:02;22.20;69.10
13992;DHT22;7070;53.586;9.692;2023-07-02T12:23:28;22.20;69.00
13992;DHT22;7070;53.586;9.692;2023-07-02T12:25:57;22.20;68.80
13992;DHT22;7070;53.586;9.692;2023-07-02T12:28:23;22.20;68.80
13992;DHT22;7070;53.586;9.692;2023-07-02T12:30:50;22.20;69.00
13992;DHT22;7070;53.586;9.692;2023-07-02T12:33:17;22.20;68.60
13992;DHT22;7070;53.586;9.692;2023-07-02T12:35:44;22.20;68.70
13992;DHT22;7070;53.586;9.692;2023-07-02T12:38:12;22.20;68.70
13992;DHT22;7070;53.586;9.692;2023-07-02T12:40:39;22.30;68.50
13992;DHT22;7070;53.586;9.692;2023-07-02T12:43:08;22.30;68.30
13992;DHT22;7070;53.586;9.692;2023-07-02T12:45:35;22.30;68.20
13992;DHT22;7070;53.586;9.692;2023-07-02T12:48:02;22.30;68.30
13992;DHT22;7070;53.586;9.692;2023-07-02T12:50:28;22.30;68.40
13992;DHT22;7070;53.586;9.692;2023-07-02T12:52:55;22.30;68.10
13992;DHT22;7070;53.586;9.692;2023-07-02T12:55:22;22.20;68.00
13992;DHT22;7070;53.586;9.692;2023-07-02T12:57:49;22.30;68.20
13992;DHT22;7070;53.586;9.692;2023-07-02T13:00:17;22.20;67.80
13992;DHT22;7070;53.586;9.692;2023-07-02T13:02:44;22.20;67.90
13992;DHT22;7070;53.586;9.692;2023-07-02T13:05:12;22.20;67.90
13992;DHT22;7070;53.586;9.692;2023-07-02T13:07:39;22.20;67.70
13992;DHT22;7070;53.586;9.692;2023-07-02T13:10:06;22.10;67.10
13992;DHT22;7070;53.586;9.692;2023-07-02T13:12:33;22.10;67.20
13992;DHT22;7070;53.586;9.692;2023-07-02T13:15:00;22.00;67.00
13992;DHT22;7070;53.586;9.692;2023-07-02T13:17:29;22.00;67.20
13992;DHT22;7070;53.586;9.692;2023-07-02T13:19:56;22.00;67.30
13992;DHT22;7070;53.586;9.692;2023-07-02T13:22:23;22.00;67.90
13992;DHT22;7070;53.586;9.692;2023-07-02T13:24:50;22.10;68.80
13992;DHT22;7070;53.586;9.692;2023-07-02T13:27:17;22.20;68.20
13992;DHT22;7070;53.586;9.692;2023-07-02T13:29:45;22.30;67.80
13992;DHT22;7070;53.586;9.692;2023-07-02T13:32:12;22.40;68.00
13992;DHT22;7070;53.586;9.692;2023-07-02T13:34:40;22.40;68.20
13992;DHT22;7070;53.586;9.692;2023-07-02T13:37:08;22.50;67.60
13992;DHT22;7070;53.586;9.692;2023-07-02T13:39:34;22.60;67.50
13992;DHT22;7070;53.586;9.692;2023-07-02T13:42:01;22.60;67.40
13992;DHT22;7070;53.586;9.692;2023-07-02T13:44:28;22.60;67.40
13992;DHT22;7070;53.586;9.692;2023-07-02T13:46:55;22.60;67.40
13992;DHT22;7070;53.586;9.692;2023-07-02T13:49:22;22.70;67.80
13992;DHT22;7070;53.586;9.692;2023-07-02T13:51:50;22.80;68.00
13992;DHT22;7070;53.586;9.692;2023-07-02T13:54:17;22.90;67.70
13992;DHT22;7070;53.586;9.692;2023-07-02T13:56:45;22.90;67.80
13992;DHT22;7070;53.586;9.692;2023-07-02T13:59:14;23.00;67.50
13992;DHT22;7070;53.586;9.692;2023-07-02T14:01:41;23.00;67.60
13992;DHT22;7070;53.586;9.692;2023-07-02T14:04:09;23.00;67.40
13992;DHT22;7070;53.586;9.692;2023-07-02T14:06:36;23.00;67.10
13992;DHT22;7070;53.586;9.692;2023-07-02T14:09:03;23.00;66.90
13992;DHT22;7070;53.586;9.692;2023-07-02T14:11:32;22.90;66.60
13992;DHT22;7070;53.586;9.692;2023-07-02T14:13:59;22.90;66.90
13992;DHT22;7070;53.586;9.692;2023-07-02T14:16:27;22.90;67.10
13992;DHT22;7070;53.586;9.692;2023-07-02T14:18:54;22.90;67.20
13992;DHT22;7070;53.586;9.692;2023-07-02T14:21:21;22.90;67.40
13992;DHT22;7070;53.586;9.692;2023-07-02T14:23:48;23.00;67.50
13992;DHT22;7070;53.586;9.692;2023-07-02T14:26:15;23.00;67.20
13992;DHT22;7070;53.586;9.692;2023-07-02T14:28:42;23.00;67.20
13992;DHT22;7070;53.586;9.692;2023-07-02T14:31:09;23.10;67.10
13992;DHT22;7070;53.586;9.692;2023-07-02T14:33:38;23.00;66.60
13992;DHT22;7070;53.586;9.692;2023-07-02T14:36:06;23.00;66.30
13992;DHT22;7070;53.586;9.692;2023-07-02T14:38:34;22.90;66.50
13992;DHT22;7070;53.586;9.692;2023-07-02T14:41:01;22.90;66.80
13992;DHT22;7070;53.586;9.692;2023-07-02T14:43:29;22.80;66.90
13992;DHT22;7070;53.586;9.692;2023-07-02T14:45:59;22.80;67.20
13992;DHT22;7070;53.586;9.692;2023-07-02T14:48:26;22.80;67.50
13992;DHT22;7070;53.586;9.692;2023-07-02T14:50:56;22.80;67.70
13992;DHT22;7070;53.586;9.692;2023-07-02T14:53:24;22.90;67.40
13992;DHT22;7070;53.586;9.692;2023-07-02T14:55:53;22.90;67.00
13992;DHT22;7070;53.586;9.692;2023-07-02T14:58:20;22.90;66.80
13992;DHT22;7070;53.586;9.692;2023-07-02T15:00:48;22.90;67.10
13992;DHT22;7070;53.586;9.692;2023-07-02T15:03:15;22.80;66.90
13992;DHT22;7070;53.586;9.692;2023-07-02T15:05:43;22.80;67.10
13992;DHT22;7070;53.586;9.692;2023-07-02T15:08:11;22.90;67.20
13992;DHT22;7070;53.586;9.692;2023-07-02T15:10:38;22.90;67.00
13992;DHT22;7070;53.586;9.692;2023-07-02T15:13:06;22.90;68.00
13992;DHT22;7070;53.586;9.692;2023-07-02T15:15:33;22.90;67.50
13992;DHT22;7070;53.586;9.692;2023-07-02T15:18:01;22.90;67.70
13992;DHT22;7070;53.586;9.692;2023-07-02T15:20:28;23.00;67.70
13992;DHT22;7070;53.586;9.692;2023-07-02T15:22:55;23.00;67.40
13992;DHT22;7070;53.586;9.692;2023-07-02T15:25:23;23.00;67.20
13992;DHT22;7070;53.586;9.692;2023-07-02T15:27:50;23.00;66.80
13992;DHT22;7070;53.586;9.692;2023-07-02T15:30:16;23.00;66.80
13992;DHT22;7070;53.586;9.692;2023-07-02T15:32:43;23.00;66.80
13992;DHT22;7070;53.586;9.692;2023-07-02T15:35:10;22.90;66.90
13992;DHT22;7070;53.586;9.692;2023-07-02T15:37:37;22.90;66.90
13992;DHT22;7070;53.586;9.692;2023-07-02T15:40:05;22.90;67.10
13992;DHT22;7070;53.586;9.692;2023-07-02T15:42:34;22.90;67.30
13992;DHT22;7070;53.586;9.692;2023-07-02T15:45:01;22.90;67.40
13992;DHT22;7070;53.586;9.692;2023-07-02T15:47:28;22.90;67.30